sensor_id;sensor_type;location;lat;lon;timestamp;P1;durP1;ratioP1;P2;durP2;ratioP2
74344;SDS011;62776;50.518;6.732;2024-02-26T00:02:39;0.55;;;0.55;;
74344;SDS011;62776;50.518;6.732;2024-02-26T00:05:28;1.25;;;0.90;;
74344;SDS011;62776;50.518;6.732;2024-02-26T00:08:20;0.57;;;0.57;;
74344;SDS011;62776;50.518;6.732;2024-02-26T00:11:10;0.65;;;0.60;;
74344;SDS011;62776;50.518;6.732;2024-02-26T00:13:59;0.60;;;0.60;;
74344;SDS011;62776;50.518;6.732;2024-02-26T00:16:45;0.63;;;0.63;;
74344;SDS011;62776;50.518;6.732;2024-02-26T00:19:31;1.95;;;0.77;;
74344;SDS011;62776;50.518;6.732;2024-02-26T00:22:21;1.75;;;0.70;;
74344;SDS011;62776;50.518;6.732;2024-02-26T00:25:07;0.70;;;0.70;;
74344;SDS011;62776;50.518;6.732;2024-02-26T00:27:54;0.60;;;0.60;;
74344;SDS011;62776;50.518;6.732;2024-02-26T00:30:41;0.55;;;0.55;;
74344;SDS011;62776;50.518;6.732;2024-02-26T00:33:28;0.68;;;0.68;;
74344;SDS011;62776;50.518;6.732;2024-02-26T00:36:14;0.50;;;0.50;;
74344;SDS011;62776;50.518;6.732;2024-02-26T00:39:00;1.00;;;1.00;;
74344;SDS011;62776;50.518;6.732;2024-02-26T00:41:46;0.85;;;0.75;;
74344;SDS011;62776;50.518;6.732;2024-02-26T00:44:33;0.50;;;0.50;;
74344;SDS011;62776;50.518;6.732;2024-02-26T00:47:19;0.70;;;0.70;;
74344;SDS011;62776;50.518;6.732;2024-02-26T00:50:05;1.25;;;0.70;;
74344;SDS011;62776;50.518;6.732;2024-02-26T00:52:53;0.60;;;0.60;;
74344;SDS011;62776;50.518;6.732;2024-02-26T00:55:39;0.65;;;0.65;;
74344;SDS011;62776;50.518;6.732;2024-02-26T00:58:26;0.57;;;0.57;;
74344;SDS011;62776;50.518;6.732;2024-02-26T01:01:15;0.60;;;0.60;;
74344;SDS011;62776;50.518;6.732;2024-02-26T01:04:03;0.60;;;0.60;;
74344;SDS011;62776;50.518;6.732;2024-02-26T01:06:49;1.17;;;0.70;;
74344;SDS011;62776;50.518;6.732;2024-02-26T01:09:35;0.60;;;0.60;;
74344;SDS011;62776;50.518;6.732;2024-02-26T01:12:25;0.68;;;0.68;;
74344;SDS011;62776;50.518;6.732;2024-02-26T01:15:11;0.60;;;0.60;;
74344;SDS011;62776;50.518;6.732;2024-02-26T01:17:58;0.70;;;0.70;;
74344;SDS011;62776;50.518;6.732;2024-02-26T01:20:44;0.60;;;0.60;;
74344;SDS011;62776;50.518;6.732;2024-02-26T01:23:37;0.85;;;0.65;;
74344;SDS011;62776;50.518;6.732;2024-02-26T01:26:27;0.60;;;0.60;;
74344;SDS011;62776;50.518;6.732;2024-02-26T01:29:13;0.60;;;0.60;;
74344;SDS011;62776;50.518;6.732;2024-02-26T01:32:00;0.70;;;0.70;;
74344;SDS011;62776;50.518;6.732;2024-02-26T01:34:46;0.60;;;0.60;;
74344;SDS011;62776;50.518;6.732;2024-02-26T01:37:32;0.70;;;0.70;;
74344;SDS011;62776;50.518;6.732;2024-02-26T01:40:22;0.68;;;0.68;;
74344;SDS011;62776;50.518;6.732;2024-02-26T01:43:11;1.02;;;0.75;;
74344;SDS011;62776;50.518;6.732;2024-02-26T01:45:58;0.60;;;0.60;;
74344;SDS011;62776;50.518;6.732;2024-02-26T01:48:47;0.90;;;0.70;;
74344;SDS011;62776;50.518;6.732;2024-02-26T01:51:35;0.50;;;0.50;;
74344;SDS011;62776;50.518;6.732;2024-02-26T01:54:25;0.70;;;0.70;;
74344;SDS011;62776;50.518;6.732;2024-02-26T01:57:11;0.75;;;0.75;;
74344;SDS011;62776;50.518;6.732;2024-02-26T02:00:00;0.63;;;0.63;;
74344;SDS011;62776;50.518;6.732;2024-02-26T02:02:50;0.98;;;0.98;;
74344;SDS011;62776;50.518;6.732;2024-02-26T02:05:27;0.52;;;0.52;;
74344;SDS011;62776;50.518;6.732;2024-02-26T02:08:14;0.70;;;0.70;;
74344;SDS011;62776;50.518;6.732;2024-02-26T02:11:03;0.60;;;0.60;;
74344;SDS011;62776;50.518;6.732;2024-02-26T02:13:55;0.60;;;0.60;;
74344;SDS011;62776;50.518;6.732;2024-02-26T02:16:47;0.82;;;0.82;;
74344;SDS011;62776;50.518;6.732;2024-02-26T02:19:37;0.70;;;0.70;;
74344;SDS011;62776;50.518;6.732;2024-02-26T02:22:23;0.60;;;0.60;;
74344;SDS011;62776;50.518;6.732;2024-02-26T02:25:10;0.70;;;0.70;;
74344;SDS011;62776;50.518;6.732;2024-02-26T02:28:00;0.63;;;0.63;;
74344;SDS011;62776;50.518;6.732;2024-02-26T02:30:47;0.70;;;0.70;;
74344;SDS011;62776;50.518;6.732;2024-02-26T02:33:34;1.55;;;1.40;;
74344;SDS011;62776;50.518;6.732;2024-02-26T02:36:21;0.60;;;0.60;;
74344;SDS011;62776;50.518;6.732;2024-02-26T02:39:09;0.70;;;0.70;;
74344;SDS011;62776;50.518;6.732;2024-02-26T02:41:55;0.80;;;0.80;;
74344;SDS011;62776;50.518;6.732;2024-02-26T02:44:41;0.80;;;0.80;;
74344;SDS011;62776;50.518;6.732;2024-02-26T02:47:35;1.10;;;0.90;;
74344;SDS011;62776;50.518;6.732;2024-02-26T02:50:22;0.73;;;0.73;;
74344;SDS011;62776;50.518;6.732;2024-02-26T02:53:08;0.77;;;0.73;;
74344;SDS011;62776;50.518;6.732;2024-02-26T02:55:58;1.35;;;0.60;;
74344;SDS011;62776;50.518;6.732;2024-02-26T02:58:44;0.60;;;0.60;;
74344;SDS011;62776;50.518;6.732;2024-02-26T03:01:31;1.23;;;0.75;;
74344;SDS011;62776;50.518;6.732;2024-02-26T03:04:17;0.70;;;0.70;;
74344;SDS011;62776;50.518;6.732;2024-02-26T03:07:05;0.60;;;0.60;;
74344;SDS011;62776;50.518;6.732;2024-02-26T03:09:51;0.60;;;0.60;;
74344;SDS011;62776;50.518;6.732;2024-02-26T03:12:40;0.88;;;0.88;;
74344;SDS011;62776;50.518;6.732;2024-02-26T03:15:26;0.80;;;0.80;;
74344;SDS011;62776;50.518;6.732;2024-02-26T03:18:13;0.70;;;0.70;;
74344;SDS011;62776;50.518;6.732;2024-02-26T03:20:59;1.33;;;1.00;;
74344;SDS011;62776;50.518;6.732;2024-02-26T03:23:45;1.00;;;1.00;;
74344;SDS011;62776;50.518;6.732;2024-02-26T03:26:31;0.88;;;0.88;;
74344;SDS011;62776;50.518;6.732;2024-02-26T03:29:18;0.93;;;0.93;;
74344;SDS011;62776;50.518;6.732;2024-02-26T03:32:04;0.80;;;0.80;;
74344;SDS011;62776;50.518;6.732;2024-02-26T03:34:52;0.90;;;0.90;;
74344;SDS011;62776;50.518;6.732;2024-02-26T03:37:40;0.90;;;0.90;;
74344;SDS011;62776;50.518;6.732;2024-02-26T03:40:27;0.85;;;0.70;;
74344;SDS011;62776;50.518;6.732;2024-02-26T03:43:13;1.35;;;1.25;;
74344;SDS011;62776;50.518;6.732;2024-02-26T03:45:59;0.93;;;0.93;;
74344;SDS011;62776;50.518;6.732;2024-02-26T03:48:46;0.60;;;0.60;;
74344;SDS011;62776;50.518;6.732;2024-02-26T03:51:35;0.77;;;0.77;;
74344;SDS011;62776;50.518;6.732;2024-02-26T03:54:21;0.73;;;0.73;;
74344;SDS011;62776;50.518;6.732;2024-02-26T03:57:07;0.50;;;0.50;;
74344;SDS011;62776;50.518;6.732;2024-02-26T03:59:56;0.70;;;0.70;;
74344;SDS011;62776;50.518;6.732;2024-02-26T04:02:43;0.80;;;0.80;;
74344;SDS011;62776;50.518;6.732;2024-02-26T04:05:29;3.65;;;0.90;;
74344;SDS011;62776;50.518;6.732;2024-02-26T04:08:16;0.70;;;0.70;;
74344;SDS011;62776;50.518;6.732;2024-02-26T04:11:05;0.65;;;0.65;;
74344;SDS011;62776;50.518;6.732;2024-02-26T04:13:57;0.60;;;0.60;;
74344;SDS011;62776;50.518;6.732;2024-02-26T04:16:43;0.70;;;0.70;;
74344;SDS011;62776;50.518;6.732;2024-02-26T04:19:29;0.70;;;0.70;;
74344;SDS011;62776;50.518;6.732;2024-02-26T04:22:16;0.80;;;0.80;;
74344;SDS011;62776;50.518;6.732;2024-02-26T04:25:02;0.60;;;0.60;;
74344;SDS011;62776;50.518;6.732;2024-02-26T04:27:48;2.55;;;0.82;;
74344;SDS011;62776;50.518;6.732;2024-02-26T04:30:34;0.70;;;0.70;;
74344;SDS011;62776;50.518;6.732;2024-02-26T04:33:21;0.85;;;0.85;;
74344;SDS011;62776;50.518;6.732;2024-02-26T04:36:14;0.60;;;0.60;;
74344;SDS011;62776;50.518;6.732;2024-02-26T04:39:01;0.70;;;0.70;;
74344;SDS011;62776;50.518;6.732;2024-02-26T04:41:50;0.50;;;0.50;;
74344;SDS011;62776;50.518;6.732;2024-02-26T04:44:48;0.60;;;0.60;;
74344;SDS011;62776;50.518;6.732;2024-02-26T04:47:35;0.75;;;0.75;;
74344;SDS011;62776;50.518;6.732;2024-02-26T04:50:23;0.80;;;0.80;;
74344;SDS011;62776;50.518;6.732;2024-02-26T04:53:09;0.88;;;0.88;;
74344;SDS011;62776;50.518;6.732;2024-02-26T04:55:55;0.60;;;0.60;;
74344;SDS011;62776;50.518;6.732;2024-02-26T04:58:42;0.57;;;0.55;;
74344;SDS011;62776;50.518;6.732;2024-02-26T05:01:32;0.65;;;0.65;;
74344;SDS011;62776;50.518;6.732;2024-02-26T05:04:19;0.73;;;0.73;;
74344;SDS011;62776;50.518;6.732;2024-02-26T05:07:05;0.57;;;0.57;;
74344;SDS011;62776;50.518;6.732;2024-02-26T05:09:53;0.70;;;0.70;;
74344;SDS011;62776;50.518;6.732;2024-02-26T05:12:39;1.10;;;0.82;;
74344;SDS011;62776;50.518;6.732;2024-02-26T05:15:28;0.60;;;0.60;;
74344;SDS011;62776;50.518;6.732;2024-02-26T05:18:16;0.70;;;0.70;;
74344;SDS011;62776;50.518;6.732;2024-02-26T05:21:04;0.60;;;0.60;;
74344;SDS011;62776;50.518;6.732;2024-02-26T05:23:50;0.60;;;0.60;;
74344;SDS011;62776;50.518;6.732;2024-02-26T05:26:37;0.60;;;0.60;;
74344;SDS011;62776;50.518;6.732;2024-02-26T05:29:23;1.95;;;1.45;;
74344;SDS011;62776;50.518;6.732;2024-02-26T05:32:11;0.85;;;0.85;;
74344;SDS011;62776;50.518;6.732;2024-02-26T05:34:58;0.50;;;0.50;;
74344;SDS011;62776;50.518;6.732;2024-02-26T05:37:44;0.70;;;0.70;;
74344;SDS011;62776;50.518;6.732;2024-02-26T05:40:33;0.70;;;0.70;;
74344;SDS011;62776;50.518;6.732;2024-02-26T05:43:21;0.98;;;0.98;;
74344;SDS011;62776;50.518;6.732;2024-02-26T05:46:11;0.60;;;0.60;;
74344;SDS011;62776;50.518;6.732;2024-02-26T05:48:57;0.68;;;0.68;;
74344;SDS011;62776;50.518;6.732;2024-02-26T05:51:43;0.60;;;0.60;;
74344;SDS011;62776;50.518;6.732;2024-02-26T05:54:29;0.80;;;0.80;;
74344;SDS011;62776;50.518;6.732;2024-02-26T05:57:16;0.60;;;0.60;;
74344;SDS011;62776;50.518;6.732;2024-02-26T06:00:03;0.65;;;0.65;;
74344;SDS011;62776;50.518;6.732;2024-02-26T06:02:50;0.60;;;0.60;;
74344;SDS011;62776;50.518;6.732;2024-02-26T06:05:49;0.80;;;0.80;;
74344;SDS011;62776;50.518;6.732;2024-02-26T06:08:35;0.85;;;0.85;;
74344;SDS011;62776;50.518;6.732;2024-02-26T06:11:22;0.73;;;0.73;;
74344;SDS011;62776;50.518;6.732;2024-02-26T06:14:08;0.70;;;0.70;;
74344;SDS011;62776;50.518;6.732;2024-02-26T06:16:55;0.65;;;0.65;;
74344;SDS011;62776;50.518;6.732;2024-02-26T06:19:41;1.23;;;1.20;;
74344;SDS011;62776;50.518;6.732;2024-02-26T06:22:29;0.80;;;0.80;;
74344;SDS011;62776;50.518;6.732;2024-02-26T06:25:19;1.50;;;1.40;;
74344;SDS011;62776;50.518;6.732;2024-02-26T06:28:05;0.77;;;0.77;;
74344;SDS011;62776;50.518;6.732;2024-02-26T06:30:51;0.70;;;0.70;;
74344;SDS011;62776;50.518;6.732;2024-02-26T06:33:37;0.70;;;0.70;;
74344;SDS011;62776;50.518;6.732;2024-02-26T06:36:24;0.80;;;0.80;;
74344;SDS011;62776;50.518;6.732;2024-02-26T06:39:10;0.70;;;0.70;;
74344;SDS011;62776;50.518;6.732;2024-02-26T06:42:05;0.70;;;0.70;;
74344;SDS011;62776;50.518;6.732;2024-02-26T06:44:57;0.80;;;0.80;;
74344;SDS011;62776;50.518;6.732;2024-02-26T06:47:43;0.70;;;0.70;;
74344;SDS011;62776;50.518;6.732;2024-02-26T06:50:29;0.70;;;0.70;;
74344;SDS011;62776;50.518;6.732;2024-02-26T06:53:17;0.52;;;0.52;;
74344;SDS011;62776;50.518;6.732;2024-02-26T06:56:03;1.25;;;0.80;;
74344;SDS011;62776;50.518;6.732;2024-02-26T06:58:50;0.80;;;0.80;;
74344;SDS011;62776;50.518;6.732;2024-02-26T07:01:42;0.80;;;0.80;;
74344;SDS011;62776;50.518;6.732;2024-02-26T07:04:28;0.70;;;0.70;;
74344;SDS011;62776;50.518;6.732;2024-02-26T07:07:18;0.70;;;0.70;;
74344;SDS011;62776;50.518;6.732;2024-02-26T07:10:04;0.68;;;0.68;;
74344;SDS011;62776;50.518;6.732;2024-02-26T07:12:58;0.80;;;0.80;;
74344;SDS011;62776;50.518;6.732;2024-02-26T07:15:52;0.60;;;0.60;;
74344;SDS011;62776;50.518;6.732;2024-02-26T07:18:42;0.90;;;0.90;;
74344;SDS011;62776;50.518;6.732;2024-02-26T07:21:31;0.88;;;0.88;;
74344;SDS011;62776;50.518;6.732;2024-02-26T07:24:18;0.75;;;0.75;;
74344;SDS011;62776;50.518;6.732;2024-02-26T07:27:04;0.70;;;0.70;;
74344;SDS011;62776;50.518;6.732;2024-02-26T07:29:51;0.60;;;0.60;;
74344;SDS011;62776;50.518;6.732;2024-02-26T07:32:37;0.60;;;0.60;;
74344;SDS011;62776;50.518;6.732;2024-02-26T07:35:23;0.60;;;0.60;;
74344;SDS011;62776;50.518;6.732;2024-02-26T07:38:10;0.75;;;0.75;;
74344;SDS011;62776;50.518;6.732;2024-02-26T07:41:01;0.63;;;0.63;;
74344;SDS011;62776;50.518;6.732;2024-02-26T07:43:48;0.70;;;0.70;;
74344;SDS011;62776;50.518;6.732;2024-02-26T07:46:34;0.68;;;0.68;;
74344;SDS011;62776;50.518;6.732;2024-02-26T07:49:27;0.80;;;0.80;;
74344;SDS011;62776;50.518;6.732;2024-02-26T07:52:17;2.25;;;2.05;;
74344;SDS011;62776;50.518;6.732;2024-02-26T07:55:07;1.00;;;1.00;;
74344;SDS011;62776;50.518;6.732;2024-02-26T07:57:53;0.90;;;0.90;;
74344;SDS011;62776;50.518;6.732;2024-02-26T08:00:54;0.52;;;0.52;;
74344;SDS011;62776;50.518;6.732;2024-02-26T08:03:40;0.70;;;0.70;;
74344;SDS011;62776;50.518;6.732;2024-02-26T08:06:27;0.90;;;0.90;;
74344;SDS011;62776;50.518;6.732;2024-02-26T08:09:13;0.85;;;0.73;;
74344;SDS011;62776;50.518;6.732;2024-02-26T08:12:03;0.70;;;0.70;;
74344;SDS011;62776;50.518;6.732;2024-02-26T08:14:52;16.88;;;15.38;;
74344;SDS011;62776;50.518;6.732;2024-02-26T08:17:39;0.95;;;0.80;;
74344;SDS011;62776;50.518;6.732;2024-02-26T08:20:29;0.63;;;0.63;;
74344;SDS011;62776;50.518;6.732;2024-02-26T08:23:17;0.70;;;0.70;;
74344;SDS011;62776;50.518;6.732;2024-02-26T08:26:03;0.70;;;0.70;;
74344;SDS011;62776;50.518;6.732;2024-02-26T08:28:55;0.85;;;0.85;;
74344;SDS011;62776;50.518;6.732;2024-02-26T08:31:42;0.80;;;0.80;;
74344;SDS011;62776;50.518;6.732;2024-02-26T08:34:32;0.70;;;0.70;;
74344;SDS011;62776;50.518;6.732;2024-02-26T08:37:19;0.70;;;0.70;;
74344;SDS011;62776;50.518;6.732;2024-02-26T08:40:05;0.60;;;0.60;;
74344;SDS011;62776;50.518;6.732;2024-02-26T08:43:13;0.50;;;0.50;;
74344;SDS011;62776;50.518;6.732;2024-02-26T08:46:04;0.60;;;0.60;;
74344;SDS011;62776;50.518;6.732;2024-02-26T08:48:55;0.60;;;0.60;;
74344;SDS011;62776;50.518;6.732;2024-02-26T08:51:42;0.70;;;0.70;;
74344;SDS011;62776;50.518;6.732;2024-02-26T08:54:31;0.68;;;0.68;;
74344;SDS011;62776;50.518;6.732;2024-02-26T08:57:17;0.50;;;0.50;;
74344;SDS011;62776;50.518;6.732;2024-02-26T09:00:07;0.80;;;0.80;;
74344;SDS011;62776;50.518;6.732;2024-02-26T09:03:03;0.70;;;0.70;;
74344;SDS011;62776;50.518;6.732;2024-02-26T09:05:49;0.70;;;0.70;;
74344;SDS011;62776;50.518;6.732;2024-02-26T09:08:35;0.50;;;0.50;;
74344;SDS011;62776;50.518;6.732;2024-02-26T09:11:22;1.13;;;0.93;;
74344;SDS011;62776;50.518;6.732;2024-02-26T09:14:08;0.63;;;0.60;;
74344;SDS011;62776;50.518;6.732;2024-02-26T09:16:54;0.60;;;0.60;;
74344;SDS011;62776;50.518;6.732;2024-02-26T09:19:41;0.63;;;0.63;;
74344;SDS011;62776;50.518;6.732;2024-02-26T09:22:29;0.60;;;0.60;;
74344;SDS011;62776;50.518;6.732;2024-02-26T09:25:24;0.60;;;0.60;;
74344;SDS011;62776;50.518;6.732;2024-02-26T09:35:17;0.70;;;0.70;;
74344;SDS011;62776;50.518;6.732;2024-02-26T09:38:26;0.50;;;0.50;;
74344;SDS011;62776;50.518;6.732;2024-02-26T09:41:48;0.70;;;0.70;;
74344;SDS011;62776;50.518;6.732;2024-02-26T09:44:44;0.63;;;0.63;;
74344;SDS011;62776;50.518;6.732;2024-02-26T09:51:12;0.63;;;0.60;;
74344;SDS011;62776;50.518;6.732;2024-02-26T09:54:04;0.70;;;0.70;;
74344;SDS011;62776;50.518;6.732;2024-02-26T09:57:05;0.70;;;0.70;;
74344;SDS011;62776;50.518;6.732;2024-02-26T10:04:15;2.50;;;0.95;;
74344;SDS011;62776;50.518;6.732;2024-02-26T10:11:19;0.80;;;0.80;;
74344;SDS011;62776;50.518;6.732;2024-02-26T10:14:20;0.70;;;0.70;;
74344;SDS011;62776;50.518;6.732;2024-02-26T10:17:19;2.75;;;1.52;;
74344;SDS011;62776;50.518;6.732;2024-02-26T10:20:18;0.80;;;0.80;;
74344;SDS011;62776;50.518;6.732;2024-02-26T10:23:43;0.60;;;0.60;;
74344;SDS011;62776;50.518;6.732;2024-02-26T10:26:31;0.60;;;0.60;;
74344;SDS011;62776;50.518;6.732;2024-02-26T10:29:24;0.65;;;0.65;;
74344;SDS011;62776;50.518;6.732;2024-02-26T10:32:56;0.70;;;0.70;;
74344;SDS011;62776;50.518;6.732;2024-02-26T10:40:21;0.70;;;0.70;;
74344;SDS011;62776;50.518;6.732;2024-02-26T10:43:43;0.52;;;0.52;;
74344;SDS011;62776;50.518;6.732;2024-02-26T10:47:13;0.80;;;0.80;;
74344;SDS011;62776;50.518;6.732;2024-02-26T10:50:47;0.65;;;0.65;;
74344;SDS011;62776;50.518;6.732;2024-02-26T10:54:03;0.70;;;0.70;;
74344;SDS011;62776;50.518;6.732;2024-02-26T10:57:24;0.65;;;0.65;;
74344;SDS011;62776;50.518;6.732;2024-02-26T11:03:50;0.60;;;0.60;;
74344;SDS011;62776;50.518;6.732;2024-02-26T11:21:17;0.50;;;0.50;;
74344;SDS011;62776;50.518;6.732;2024-02-26T11:33:05;1.38;;;0.60;;
74344;SDS011;62776;50.518;6.732;2024-02-26T11:36:37;1.33;;;1.23;;
74344;SDS011;62776;50.518;6.732;2024-02-26T11:57:48;0.70;;;0.70;;
74344;SDS011;62776;50.518;6.732;2024-02-26T12:00:35;0.68;;;0.68;;
74344;SDS011;62776;50.518;6.732;2024-02-26T12:03:21;0.70;;;0.70;;
74344;SDS011;62776;50.518;6.732;2024-02-26T12:06:10;0.63;;;0.63;;
74344;SDS011;62776;50.518;6.732;2024-02-26T12:08:57;0.63;;;0.63;;
74344;SDS011;62776;50.518;6.732;2024-02-26T12:11:46;0.80;;;0.80;;
74344;SDS011;62776;50.518;6.732;2024-02-26T12:14:56;1.10;;;0.80;;
74344;SDS011;62776;50.518;6.732;2024-02-26T12:17:41;0.70;;;0.70;;
74344;SDS011;62776;50.518;6.732;2024-02-26T12:20:36;0.75;;;0.75;;
74344;SDS011;62776;50.518;6.732;2024-02-26T12:23:23;0.70;;;0.70;;
74344;SDS011;62776;50.518;6.732;2024-02-26T12:26:09;1.05;;;1.05;;
74344;SDS011;62776;50.518;6.732;2024-02-26T12:28:57;1.02;;;1.02;;
74344;SDS011;62776;50.518;6.732;2024-02-26T12:31:46;0.95;;;0.95;;
74344;SDS011;62776;50.518;6.732;2024-02-26T12:34:33;0.90;;;0.90;;
74344;SDS011;62776;50.518;6.732;2024-02-26T12:37:19;1.02;;;0.93;;
74344;SDS011;62776;50.518;6.732;2024-02-26T12:40:06;0.70;;;0.70;;
74344;SDS011;62776;50.518;6.732;2024-02-26T12:42:54;1.23;;;0.90;;
74344;SDS011;62776;50.518;6.732;2024-02-26T12:45:43;0.77;;;0.77;;
74344;SDS011;62776;50.518;6.732;2024-02-26T12:48:31;0.90;;;0.82;;
74344;SDS011;62776;50.518;6.732;2024-02-26T12:51:17;0.90;;;0.90;;
74344;SDS011;62776;50.518;6.732;2024-02-26T12:54:04;0.82;;;0.82;;
74344;SDS011;62776;50.518;6.732;2024-02-26T12:56:52;1.10;;;1.10;;
74344;SDS011;62776;50.518;6.732;2024-02-26T12:59:40;2.70;;;1.42;;
74344;SDS011;62776;50.518;6.732;2024-02-26T13:02:27;1.38;;;1.27;;
74344;SDS011;62776;50.518;6.732;2024-02-26T13:13:10;0.80;;;0.80;;
74344;SDS011;62776;50.518;6.732;2024-02-26T13:16:10;0.85;;;0.80;;
74344;SDS011;62776;50.518;6.732;2024-02-26T13:19:09;1.30;;;1.20;;
74344;SDS011;62776;50.518;6.732;2024-02-26T13:21:56;2.15;;;0.90;;
74344;SDS011;62776;50.518;6.732;2024-02-26T13:24:55;1.23;;;1.13;;
74344;SDS011;62776;50.518;6.732;2024-02-26T13:27:42;1.40;;;1.30;;
74344;SDS011;62776;50.518;6.732;2024-02-26T13:30:29;1.30;;;1.20;;
74344;SDS011;62776;50.518;6.732;2024-02-26T13:33:21;1.00;;;1.00;;
74344;SDS011;62776;50.518;6.732;2024-02-26T13:36:08;1.08;;;1.08;;
74344;SDS011;62776;50.518;6.732;2024-02-26T13:39:01;1.70;;;1.60;;
74344;SDS011;62776;50.518;6.732;2024-02-26T13:41:53;1.40;;;1.30;;
74344;SDS011;62776;50.518;6.732;2024-02-26T13:44:42;1.63;;;1.52;;
74344;SDS011;62776;50.518;6.732;2024-02-26T13:47:28;1.27;;;1.20;;
74344;SDS011;62776;50.518;6.732;2024-02-26T13:50:14;1.10;;;1.10;;
74344;SDS011;62776;50.518;6.732;2024-02-26T13:56:34;1.50;;;1.40;;
74344;SDS011;62776;50.518;6.732;2024-02-26T13:59:21;1.73;;;1.63;;
74344;SDS011;62776;50.518;6.732;2024-02-26T14:02:10;1.65;;;1.55;;
74344;SDS011;62776;50.518;6.732;2024-02-26T14:04:59;1.50;;;1.40;;
74344;SDS011;62776;50.518;6.732;2024-02-26T14:07:52;1.58;;;1.48;;
74344;SDS011;62776;50.518;6.732;2024-02-26T14:10:39;1.20;;;1.10;;
74344;SDS011;62776;50.518;6.732;2024-02-26T14:13:26;1.90;;;1.80;;
74344;SDS011;62776;50.518;6.732;2024-02-26T14:16:12;1.45;;;1.35;;
74344;SDS011;62776;50.518;6.732;2024-02-26T14:18:58;1.77;;;1.67;;
74344;SDS011;62776;50.518;6.732;2024-02-26T14:21:47;1.70;;;1.60;;
74344;SDS011;62776;50.518;6.732;2024-02-26T14:24:34;1.52;;;1.42;;
74344;SDS011;62776;50.518;6.732;2024-02-26T14:27:21;1.65;;;1.55;;
74344;SDS011;62776;50.518;6.732;2024-02-26T14:30:08;1.70;;;1.60;;
74344;SDS011;62776;50.518;6.732;2024-02-26T14:32:54;1.60;;;1.50;;
74344;SDS011;62776;50.518;6.732;2024-02-26T14:35:41;1.67;;;1.58;;
74344;SDS011;62776;50.518;6.732;2024-02-26T14:38:30;1.90;;;1.80;;
74344;SDS011;62776;50.518;6.732;2024-02-26T14:41:17;1.90;;;1.80;;
74344;SDS011;62776;50.518;6.732;2024-02-26T14:44:03;2.03;;;1.92;;
74344;SDS011;62776;50.518;6.732;2024-02-26T14:46:50;1.80;;;1.70;;
74344;SDS011;62776;50.518;6.732;2024-02-26T14:49:36;1.83;;;1.73;;
74344;SDS011;62776;50.518;6.732;2024-02-26T14:52:23;1.83;;;1.73;;
74344;SDS011;62776;50.518;6.732;2024-02-26T14:55:09;4.60;;;2.45;;
74344;SDS011;62776;50.518;6.732;2024-02-26T14:57:55;2.47;;;2.28;;
74344;SDS011;62776;50.518;6.732;2024-02-26T15:00:41;2.20;;;2.10;;
74344;SDS011;62776;50.518;6.732;2024-02-26T15:03:27;3.42;;;2.35;;
74344;SDS011;62776;50.518;6.732;2024-02-26T15:06:14;2.80;;;2.00;;
74344;SDS011;62776;50.518;6.732;2024-02-26T15:09:00;10.07;;;2.67;;
74344;SDS011;62776;50.518;6.732;2024-02-26T15:11:48;2.97;;;2.13;;
74344;SDS011;62776;50.518;6.732;2024-02-26T15:14:34;5.88;;;2.78;;
74344;SDS011;62776;50.518;6.732;2024-02-26T15:17:20;3.60;;;2.60;;
74344;SDS011;62776;50.518;6.732;2024-02-26T15:20:07;2.50;;;2.10;;
74344;SDS011;62776;50.518;6.732;2024-02-26T15:22:56;4.03;;;2.17;;
74344;SDS011;62776;50.518;6.732;2024-02-26T15:25:42;2.47;;;2.28;;
74344;SDS011;62776;50.518;6.732;2024-02-26T15:28:31;2.15;;;2.00;;
74344;SDS011;62776;50.518;6.732;2024-02-26T15:31:19;4.03;;;2.95;;
74344;SDS011;62776;50.518;6.732;2024-02-26T15:34:05;1.77;;;1.65;;
74344;SDS011;62776;50.518;6.732;2024-02-26T15:36:51;2.08;;;1.90;;
74344;SDS011;62776;50.518;6.732;2024-02-26T15:39:37;2.13;;;1.88;;
74344;SDS011;62776;50.518;6.732;2024-02-26T15:42:23;2.15;;;2.05;;
74344;SDS011;62776;50.518;6.732;2024-02-26T15:45:10;2.10;;;2.00;;
74344;SDS011;62776;50.518;6.732;2024-02-26T15:47:56;2.10;;;2.00;;
74344;SDS011;62776;50.518;6.732;2024-02-26T15:50:43;3.25;;;2.60;;
74344;SDS011;62776;50.518;6.732;2024-02-26T15:53:29;3.67;;;2.03;;
74344;SDS011;62776;50.518;6.732;2024-02-26T15:56:15;2.72;;;2.30;;
74344;SDS011;62776;50.518;6.732;2024-02-26T15:59:02;5.45;;;2.25;;
74344;SDS011;62776;50.518;6.732;2024-02-26T16:01:48;55.22;;;10.13;;
74344;SDS011;62776;50.518;6.732;2024-02-26T16:04:35;51.65;;;6.75;;
74344;SDS011;62776;50.518;6.732;2024-02-26T16:07:23;39.65;;;7.18;;
74344;SDS011;62776;50.518;6.732;2024-02-26T16:10:15;71.72;;;10.52;;
74344;SDS011;62776;50.518;6.732;2024-02-26T16:13:02;149.05;;;20.42;;
74344;SDS011;62776;50.518;6.732;2024-02-26T16:15:57;214.18;;;35.00;;
74344;SDS011;62776;50.518;6.732;2024-02-26T16:18:49;129.60;;;23.13;;
74344;SDS011;62776;50.518;6.732;2024-02-26T16:21:35;32.47;;;7.60;;
74344;SDS011;62776;50.518;6.732;2024-02-26T16:24:22;170.60;;;30.17;;
74344;SDS011;62776;50.518;6.732;2024-02-26T16:27:08;58.35;;;12.77;;
74344;SDS011;62776;50.518;6.732;2024-02-26T16:29:55;33.38;;;6.32;;
74344;SDS011;62776;50.518;6.732;2024-02-26T16:32:41;8.95;;;3.42;;
74344;SDS011;62776;50.518;6.732;2024-02-26T16:35:28;116.57;;;23.13;;
74344;SDS011;62776;50.518;6.732;2024-02-26T16:38:15;174.25;;;33.22;;
74344;SDS011;62776;50.518;6.732;2024-02-26T16:41:01;78.95;;;15.65;;
74344;SDS011;62776;50.518;6.732;2024-02-26T16:43:48;172.52;;;29.52;;
74344;SDS011;62776;50.518;6.732;2024-02-26T16:46:34;199.13;;;36.30;;
74344;SDS011;62776;50.518;6.732;2024-02-26T16:49:20;263.73;;;41.60;;
74344;SDS011;62776;50.518;6.732;2024-02-26T16:52:07;86.75;;;18.23;;
74344;SDS011;62776;50.518;6.732;2024-02-26T16:54:54;30.45;;;6.97;;
74344;SDS011;62776;50.518;6.732;2024-02-26T16:57:41;274.13;;;38.85;;
74344;SDS011;62776;50.518;6.732;2024-02-26T17:00:27;361.70;;;60.17;;
74344;SDS011;62776;50.518;6.732;2024-02-26T17:03:13;149.38;;;23.17;;
74344;SDS011;62776;50.518;6.732;2024-02-26T17:06:01;292.98;;;45.53;;
74344;SDS011;62776;50.518;6.732;2024-02-26T17:08:47;147.02;;;24.45;;
74344;SDS011;62776;50.518;6.732;2024-02-26T17:11:35;324.65;;;47.13;;
74344;SDS011;62776;50.518;6.732;2024-02-26T17:14:24;397.58;;;61.47;;
74344;SDS011;62776;50.518;6.732;2024-02-26T17:17:11;121.90;;;20.48;;
74344;SDS011;62776;50.518;6.732;2024-02-26T17:19:57;371.40;;;53.03;;
74344;SDS011;62776;50.518;6.732;2024-02-26T17:22:43;378.52;;;60.33;;
74344;SDS011;62776;50.518;6.732;2024-02-26T17:25:29;348.90;;;51.88;;
74344;SDS011;62776;50.518;6.732;2024-02-26T17:28:18;273.67;;;44.10;;
74344;SDS011;62776;50.518;6.732;2024-02-26T17:31:04;341.85;;;50.95;;
74344;SDS011;62776;50.518;6.732;2024-02-26T17:33:51;417.70;;;69.38;;
74344;SDS011;62776;50.518;6.732;2024-02-26T17:36:38;340.65;;;47.80;;
74344;SDS011;62776;50.518;6.732;2024-02-26T17:39:24;309.25;;;49.20;;
74344;SDS011;62776;50.518;6.732;2024-02-26T17:42:10;372.92;;;60.92;;
74344;SDS011;62776;50.518;6.732;2024-02-26T17:44:57;163.88;;;29.88;;
74344;SDS011;62776;50.518;6.732;2024-02-26T17:47:43;26.75;;;8.18;;
74344;SDS011;62776;50.518;6.732;2024-02-26T17:50:31;352.20;;;65.00;;
74344;SDS011;62776;50.518;6.732;2024-02-26T17:53:17;218.13;;;43.00;;
74344;SDS011;62776;50.518;6.732;2024-02-26T17:56:07;90.93;;;19.48;;
74344;SDS011;62776;50.518;6.732;2024-02-26T17:58:53;56.50;;;14.05;;
74344;SDS011;62776;50.518;6.732;2024-02-26T18:01:42;18.60;;;5.95;;
74344;SDS011;62776;50.518;6.732;2024-02-26T18:04:28;81.82;;;19.38;;
74344;SDS011;62776;50.518;6.732;2024-02-26T18:07:15;78.97;;;19.90;;
74344;SDS011;62776;50.518;6.732;2024-02-26T18:10:01;157.05;;;33.25;;
74344;SDS011;62776;50.518;6.732;2024-02-26T18:12:52;248.90;;;43.17;;
74344;SDS011;62776;50.518;6.732;2024-02-26T18:15:43;233.20;;;46.17;;